Time;durP1;ratioP1;P1;durP2;ratioP2;P2;SDS_P1;SDS_P2;PMS_P1;PMS_P2;Temp;Humidity;BMP_temperature;BMP_pressure;BME280_temperature;BME280_humidity;BME280_pressure;Samples;Min_cycle;Max_cycle;Signal;HPM_P1;HPM_P2
2022/10/09 00:00:23;;;;;;;0.57;0.57;;;5.90;99.90;;;;;;5076137;28;20202;-85
2022/10/09 00:02:49;;;;;;;0.67;0.67;;;5.70;99.90;;;;;;5077082;28;20194;-82
2022/10/09 00:05:15;;;;;;;0.70;0.70;;;5.80;99.90;;;;;;5077754;28;20167;-84
2022/10/09 00:07:40;;;;;;;0.60;0.60;;;5.80;99.90;;;;;;5076656;28;20289;-86
2022/10/09 00:10:06;;;;;;;0.70;0.70;;;5.90;99.90;;;;;;5076426;28;20228;-83
2022/10/09 00:12:31;;;;;;;0.67;0.67;;;5.90;99.90;;;;;;5076921;28;20170;-83
2022/10/09 00:14:57;;;;;;;0.70;0.70;;;5.90;99.90;;;;;;5077130;28;20214;-85
2022/10/09 00:17:22;;;;;;;0.60;0.60;;;6.00;99.90;;;;;;5077280;28;20188;-82
2022/10/09 00:19:48;;;;;;;0.70;0.70;;;5.90;99.90;;;;;;5077053;28;20185;-82
2022/10/09 00:22:14;;;;;;;0.70;0.70;;;5.80;99.90;;;;;;5076866;28;20181;-84
2022/10/09 00:24:41;;;;;;;0.67;0.67;;;5.70;99.90;;;;;;5076538;28;20174;-85
2022/10/09 00:27:06;;;;;;;0.70;0.70;;;5.70;99.90;;;;;;5076455;28;20178;-83
2022/10/09 00:29:32;;;;;;;0.70;0.70;;;5.70;99.90;;;;;;5076153;28;20182;-84
2022/10/09 00:31:57;;;;;;;0.73;0.73;;;5.60;99.90;;;;;;5076412;28;20178;-83
2022/10/09 00:34:23;;;;;;;0.70;0.70;;;5.70;99.90;;;;;;5076430;28;20635;-83
2022/10/09 00:36:48;;;;;;;0.63;0.63;;;5.70;99.90;;;;;;5076117;28;20211;-82
2022/10/09 00:39:14;;;;;;;0.60;0.60;;;5.60;99.90;;;;;;5089449;28;20679;-83
2022/10/09 00:41:40;;;;;;;0.70;0.70;;;5.60;99.90;;;;;;5096303;28;20205;-83
2022/10/09 00:44:46;;;;;;;0.70;0.70;;;5.50;99.90;;;;;;5096430;28;20189;-84
2022/10/09 00:47:19;;;;;;;0.70;0.70;;;5.50;99.90;;;;;;5099545;28;20173;-85
2022/10/09 00:49:45;;;;;;;0.70;0.70;;;5.30;99.90;;;;;;5112524;28;20181;-83
2022/10/09 00:52:11;;;;;;;0.60;0.60;;;5.30;99.90;;;;;;5113933;28;20177;-82
2022/10/09 00:54:39;;;;;;;0.70;0.70;;;5.20;99.90;;;;;;5111328;28;20215;-84
2022/10/09 00:57:06;;;;;;;0.70;0.70;;;5.20;99.90;;;;;;5099010;28;20189;-84
2022/10/09 00:59:32;;;;;;;0.70;0.70;;;5.10;99.90;;;;;;5096441;28;20642;-85
2022/10/09 01:01:57;;;;;;;0.80;0.80;;;5.00;99.90;;;;;;5096707;28;20170;-83
2022/10/09 01:04:23;;;;;;;0.70;0.70;;;5.20;99.90;;;;;;5097169;28;20239;-85
2022/10/09 01:06:54;;;;;;;0.70;0.70;;;5.40;99.90;;;;;;5097062;28;20664;-85
2022/10/09 01:09:30;;;;;;;0.70;0.70;;;5.40;99.90;;;;;;5097415;28;20577;-86
2022/10/09 01:12:04;;;;;;;0.70;0.70;;;5.90;99.90;;;;;;5096718;28;20182;-84
2022/10/09 01:15:00;;;;;;;0.70;0.70;;;5.50;99.90;;;;;;5096628;28;20186;-85
2022/10/09 01:17:40;;;;;;;0.70;0.70;;;5.40;99.90;;;;;;5070219;28;20201;-85
2022/10/09 01:20:15;;;;;;;0.63;0.63;;;5.40;99.90;;;;;;5095568;28;20551;-84
2022/10/09 01:23:22;;;;;;;0.70;0.70;;;5.40;99.90;;;;;;5096466;28;20256;-84
2022/10/09 01:26:24;;;;;;;0.63;0.63;;;5.40;99.90;;;;;;5075847;28;20212;-85
2022/10/09 01:28:58;;;;;;;0.70;0.70;;;5.40;99.90;;;;;;5096367;28;20539;-84
2022/10/09 01:31:27;;;;;;;0.70;0.70;;;5.40;99.90;;;;;;5095633;28;20205;-84
2022/10/09 01:33:52;;;;;;;0.70;0.70;;;5.10;99.90;;;;;;5096146;28;20244;-82
2022/10/09 01:36:21;;;;;;;0.70;0.70;;;5.10;99.90;;;;;;5095857;28;20312;-85
2022/10/09 01:38:48;;;;;;;0.70;0.70;;;5.10;99.90;;;;;;5096331;28;20182;-82
2022/10/09 01:41:14;;;;;;;0.60;0.60;;;5.10;99.90;;;;;;5095554;28;20235;-84
2022/10/09 01:43:40;;;;;;;0.63;0.63;;;4.90;99.90;;;;;;5095705;28;20185;-83
2022/10/09 01:46:21;;;;;;;0.70;0.70;;;4.90;99.90;;;;;;5096457;28;20260;-84
2022/10/09 01:48:58;;;;;;;0.80;0.80;;;4.80;99.90;;;;;;5096891;28;20181;-84
2022/10/09 01:51:32;;;;;;;0.63;0.63;;;4.90;99.90;;;;;;5096669;28;20747;-85
2022/10/09 01:54:03;;;;;;;0.70;0.70;;;5.00;99.90;;;;;;5096492;28;20181;-84
2022/10/09 01:56:32;;;;;;;0.80;0.80;;;5.00;99.90;;;;;;5104710;28;20273;-87
2022/10/09 01:59:02;;;;;;;0.70;0.70;;;5.00;99.90;;;;;;5114714;28;20178;-84
2022/10/09 02:01:31;;;;;;;0.70;0.70;;;5.00;99.90;;;;;;5104175;28;20193;-84
2022/10/09 02:04:00;;;;;;;0.63;0.63;;;4.90;99.90;;;;;;5094547;28;20662;-83
2022/10/09 02:06:27;;;;;;;0.80;0.80;;;5.00;99.90;;;;;;5094838;28;20169;-85
2022/10/09 02:08:54;;;;;;;0.63;0.63;;;5.10;99.90;;;;;;5096773;28;20269;-84
2022/10/09 02:11:20;;;;;;;0.60;0.60;;;4.90;99.90;;;;;;5095698;28;20319;-84
2022/10/09 02:13:51;;;;;;;0.70;0.70;;;4.90;99.90;;;;;;5096210;28;20184;-86
2022/10/09 02:16:22;;;;;;;0.70;0.70;;;4.90;99.90;;;;;;5096244;28;20241;-84
2022/10/09 02:18:58;;;;;;;0.70;0.70;;;4.90;99.90;;;;;;5096512;28;20166;-85
2022/10/09 02:21:30;;;;;;;0.80;0.80;;;4.90;99.90;;;;;;5095538;28;20542;-85
2022/10/09 02:23:57;;;;;;;0.70;0.70;;;4.90;99.90;;;;;;5096673;28;20177;-85
2022/10/09 02:26:23;;;;;;;0.80;0.80;;;5.00;99.90;;;;;;5095595;28;20189;-86
2022/10/09 02:28:49;;;;;;;0.70;0.70;;;4.90;99.90;;;;;;5096464;28;20182;-87
2022/10/09 02:31:22;;;;;;;0.80;0.80;;;5.00;99.90;;;;;;5095742;28;20206;-85
2022/10/09 02:33:59;;;;;;;0.70;0.70;;;4.90;99.90;;;;;;5096689;28;20181;-85
2022/10/09 02:36:25;;;;;;;0.70;0.70;;;5.00;99.90;;;;;;5096619;28;20304;-85
2022/10/09 02:38:51;;;;;;;0.80;0.80;;;5.00;99.90;;;;;;5096456;28;20185;-84
2022/10/09 02:41:17;;;;;;;0.70;0.70;;;4.90;99.90;;;;;;5096228;28;20201;-84
2022/10/09 02:43:42;;;;;;;0.60;0.60;;;4.90;99.90;;;;;;5095464;28;20178;-85
2022/10/09 02:46:08;;;;;;;0.80;0.80;;;4.80;99.90;;;;;;5096074;28;20173;-85
2022/10/09 02:48:33;;;;;;;0.80;0.80;;;4.80;99.90;;;;;;5095787;28;20231;-84
2022/10/09 02:51:00;;;;;;;0.70;0.70;;;4.80;99.90;;;;;;5096299;28;20197;-85
2022/10/09 02:53:26;;;;;;;0.70;0.70;;;4.90;99.90;;;;;;5095743;28;20669;-87
2022/10/09 02:55:51;;;;;;;0.70;0.70;;;4.90;99.90;;;;;;5096563;28;20213;-87
2022/10/09 02:58:17;;;;;;;0.60;0.60;;;4.80;99.90;;;;;;5096773;28;20217;-86
2022/10/09 03:00:47;;;;;;;0.70;0.70;;;5.90;99.90;;;;;;5095754;28;20194;-85
2022/10/09 03:03:13;;;;;;;0.70;0.70;;;4.50;99.90;;;;;;5097130;28;20193;-85
2022/10/09 03:05:39;;;;;;;0.80;0.80;;;4.60;99.90;;;;;;5101012;28;20555;-85
2022/10/09 03:08:04;;;;;;;0.77;0.77;;;4.50;99.90;;;;;;5101357;28;20174;-86
2022/10/09 03:10:30;;;;;;;0.60;0.60;;;4.40;99.90;;;;;;5100179;28;20220;-85
2022/10/09 03:12:55;;;;;;;0.73;0.73;;;4.50;99.90;;;;;;5101147;28;20170;-85
2022/10/09 03:15:21;;;;;;;0.70;0.70;;;4.40;99.90;;;;;;5101040;28;20209;-86
2022/10/09 03:17:46;;;;;;;0.70;0.70;;;4.30;99.90;;;;;;5113582;28;20192;-83
2022/10/09 03:20:12;;;;;;;0.80;0.80;;;4.40;99.90;;;;;;5117382;28;20230;-86
2022/10/09 03:22:37;;;;;;;0.80;0.80;;;4.30;99.90;;;;;;5106973;28;20201;-87
2022/10/09 03:25:03;;;;;;;0.70;0.70;;;4.40;99.90;;;;;;5100472;28;20181;-84
2022/10/09 03:27:29;;;;;;;0.70;0.70;;;4.40;99.90;;;;;;5100896;28;20173;-84
2022/10/09 03:29:56;;;;;;;0.70;0.70;;;4.40;99.90;;;;;;5101370;28;20284;-83
2022/10/09 03:32:21;;;;;;;0.70;0.70;;;4.40;99.90;;;;;;5099656;28;20182;-82
2022/10/09 03:34:47;;;;;;;0.80;0.80;;;4.40;99.90;;;;;;5099013;28;20245;-84
2022/10/09 03:37:12;;;;;;;0.70;0.70;;;4.30;99.90;;;;;;5098429;28;20303;-85
2022/10/09 03:39:38;;;;;;;0.73;0.73;;;4.30;99.90;;;;;;5098318;28;20252;-83
2022/10/09 03:42:04;;;;;;;0.80;0.80;;;4.30;99.90;;;;;;5099240;28;20184;-84
2022/10/09 03:44:29;;;;;;;0.70;0.70;;;4.30;99.90;;;;;;5098458;28;20278;-87
2022/10/09 03:46:55;;;;;;;0.80;0.80;;;4.20;99.90;;;;;;5099140;28;20668;-83
2022/10/09 03:49:20;;;;;;;0.70;0.70;;;4.20;99.90;;;;;;5099229;28;20173;-84
2022/10/09 03:51:46;;;;;;;0.80;0.80;;;4.20;99.90;;;;;;5100113;28;20213;-86
2022/10/09 03:54:11;;;;;;;0.70;0.70;;;4.10;99.90;;;;;;5106870;28;20213;-83
2022/10/09 03:56:37;;;;;;;0.73;0.73;;;4.10;99.90;;;;;;5108472;28;20574;-84
2022/10/09 03:59:04;;;;;;;0.70;0.70;;;4.00;99.90;;;;;;5107712;28;20200;-84
2022/10/09 04:01:30;;;;;;;0.60;0.60;;;3.90;99.90;;;;;;5097604;28;20280;-83
2022/10/09 04:03:55;;;;;;;0.80;0.80;;;3.90;99.90;;;;;;5096290;28;20285;-83
2022/10/09 04:06:21;;;;;;;0.67;0.67;;;3.80;99.90;;;;;;5096909;28;20166;-84
2022/10/09 04:08:46;;;;;;;0.80;0.80;;;3.80;99.90;;;;;;5097197;28;20177;-82
2022/10/09 04:11:12;;;;;;;0.70;0.70;;;3.90;99.90;;;;;;5096533;28;20257;-82
2022/10/09 04:13:37;;;;;;;0.70;0.70;;;3.90;99.90;;;;;;5096474;28;20246;-86
2022/10/09 04:16:04;;;;;;;0.70;0.70;;;4.00;99.90;;;;;;5096136;28;20288;-82
2022/10/09 04:18:29;;;;;;;0.80;0.80;;;4.00;99.90;;;;;;5096728;28;20191;-83
2022/10/09 04:20:56;;;;;;;0.70;0.70;;;4.00;99.90;;;;;;5095342;28;20197;-84
2022/10/09 04:23:25;;;;;;;0.70;0.70;;;4.00;99.90;;;;;;5096033;28;20174;-82
2022/10/09 04:25:55;;;;;;;0.70;0.70;;;4.10;99.90;;;;;;5096584;28;20227;-84
2022/10/09 04:28:22;;;;;;;0.70;0.70;;;4.10;99.90;;;;;;5096385;28;20237;-85
2022/10/09 04:30:47;;;;;;;0.70;0.70;;;4.00;99.90;;;;;;5095902;28;20213;-83
2022/10/09 04:33:13;;;;;;;0.80;0.80;;;3.90;99.90;;;;;;5096222;28;20169;-83
2022/10/09 04:35:43;;;;;;;0.77;0.77;;;3.90;99.90;;;;;;5097430;28;20282;-83
2022/10/09 04:38:08;;;;;;;0.80;0.80;;;3.90;99.90;;;;;;5097021;28;20178;-84
2022/10/09 04:40:34;;;;;;;0.60;0.60;;;3.90;99.90;;;;;;5095795;28;20194;-83
2022/10/09 04:42:59;;;;;;;0.80;0.80;;;3.80;99.90;;;;;;5096685;28;20177;-83
2022/10/09 04:45:25;;;;;;;0.80;0.80;;;3.70;99.90;;;;;;5095982;28;20170;-85
2022/10/09 04:47:50;;;;;;;0.80;0.80;;;3.70;99.90;;;;;;5096012;28;20174;-84
2022/10/09 04:50:16;;;;;;;0.70;0.70;;;3.70;99.90;;;;;;5095397;28;20204;-83
2022/10/09 04:52:42;;;;;;;0.70;0.70;;;3.70;99.90;;;;;;5096819;28;20174;-82
2022/10/09 04:55:07;;;;;;;0.80;0.80;;;3.70;99.90;;;;;;5096189;28;20210;-84
2022/10/09 04:57:33;;;;;;;0.80;0.80;;;3.70;99.90;;;;;;5096328;28;20177;-87
2022/10/09 04:59:58;;;;;;;0.80;0.80;;;3.60;99.90;;;;;;5095962;28;20194;-84
2022/10/09 05:02:24;;;;;;;0.80;0.80;;;3.70;99.90;;;;;;5096356;28;20273;-83
2022/10/09 05:04:49;;;;;;;0.80;0.80;;;3.60;99.90;;;;;;5095821;28;20174;-87
2022/10/09 05:07:15;;;;;;;0.80;0.80;;;3.60;99.90;;;;;;5094032;28;20170;-83
2022/10/09 05:09:40;;;;;;;0.77;0.77;;;3.60;99.90;;;;;;5095136;28;20186;-84
2022/10/09 05:12:06;;;;;;;0.80;0.80;;;3.60;99.90;;;;;;5095234;28;20181;-86
2022/10/09 05:14:32;;;;;;;0.80;0.80;;;3.60;99.90;;;;;;5095466;28;20626;-83
2022/10/09 05:17:01;;;;;;;0.80;0.80;;;3.60;99.90;;;;;;5095109;28;20206;-84
2022/10/09 05:19:27;;;;;;;0.80;0.80;;;3.60;99.90;;;;;;5095263;28;20550;-85
2022/10/09 05:21:53;;;;;;;0.70;0.70;;;3.60;99.90;;;;;;5095473;28;20281;-87
2022/10/09 05:24:19;;;;;;;0.80;0.80;;;3.50;99.90;;;;;;5095897;28;20197;-85
2022/10/09 05:26:44;;;;;;;0.67;0.67;;;3.40;99.90;;;;;;5094923;28;20174;-84
2022/10/09 05:29:10;;;;;;;0.70;0.70;;;3.40;99.90;;;;;;5095630;28;20205;-83
2022/10/09 05:31:36;;;;;;;0.70;0.70;;;3.40;99.90;;;;;;5095393;28;20196;-84
2022/10/09 05:34:02;;;;;;;0.80;0.80;;;3.40;99.90;;;;;;5097621;28;20184;-83
2022/10/09 05:36:28;;;;;;;0.70;0.70;;;3.40;99.90;;;;;;5099742;28;20237;-84
2022/10/09 05:38:55;;;;;;;0.80;0.80;;;3.40;99.90;;;;;;5098573;28;20692;-84
2022/10/09 05:41:20;;;;;;;0.77;0.77;;;3.40;99.90;;;;;;5098526;28;20198;-87
2022/10/09 05:43:48;;;;;;;0.70;0.70;;;3.40;99.90;;;;;;5098988;28;20471;-83
2022/10/09 05:46:24;;;;;;;0.70;0.70;;;3.40;99.90;;;;;;5100344;28;20178;-85
2022/10/09 05:48:59;;;;;;;0.73;0.73;;;3.40;99.90;;;;;;5100666;28;20181;-86
2022/10/09 05:51:27;;;;;;;0.80;0.80;;;3.30;99.90;;;;;;5097754;28;20201;-84
2022/10/09 05:53:54;;;;;;;0.77;0.77;;;3.30;99.90;;;;;;5100408;28;20181;-83
2022/10/09 05:56:28;;;;;;;0.80;0.80;;;3.30;99.90;;;;;;5092735;28;20206;-83
2022/10/09 05:58:56;;;;;;;0.73;0.73;;;3.40;99.90;;;;;;5100735;28;20684;-83
2022/10/09 06:01:25;;;;;;;0.73;0.73;;;3.40;99.90;;;;;;5099598;28;20190;-83
2022/10/09 06:03:53;;;;;;;0.70;0.70;;;3.50;99.90;;;;;;5100305;28;20213;-87
2022/10/09 06:06:30;;;;;;;0.70;0.70;;;3.50;99.90;;;;;;5099500;28;20239;-84
2022/10/09 06:08:57;;;;;;;0.80;0.80;;;3.50;99.90;;;;;;5099326;28;20195;-82
2022/10/09 06:11:27;;;;;;;0.80;0.80;;;3.60;99.90;;;;;;5100106;28;20184;-81
2022/10/09 06:13:53;;;;;;;0.80;0.80;;;3.60;99.90;;;;;;5095318;28;20184;-79
2022/10/09 06:16:19;;;;;;;0.77;0.77;;;3.80;99.90;;;;;;5094571;28;20281;-78
2022/10/09 06:18:46;;;;;;;0.70;0.70;;;3.90;99.90;;;;;;5095179;28;20208;-81
2022/10/09 06:21:13;;;;;;;0.80;0.80;;;4.00;99.90;;;;;;5090131;28;20224;-81
2022/10/09 06:23:38;;;;;;;0.70;0.70;;;4.30;99.90;;;;;;5083757;28;20167;-81
2022/10/09 06:26:07;;;;;;;0.80;0.80;;;4.40;99.90;;;;;;5081227;28;20663;-83
2022/10/09 06:28:33;;;;;;;0.70;0.70;;;4.80;99.90;;;;;;5085786;28;20183;-79
2022/10/09 06:31:21;;;;;;;0.73;0.73;;;5.40;99.90;;;;;;5091495;28;20652;-81
2022/10/09 06:33:48;;;;;;;0.70;0.70;;;5.70;99.90;;;;;;5087853;28;20208;-80
2022/10/09 06:36:19;;;;;;;0.80;0.80;;;5.60;99.90;;;;;;5094162;28;20205;-80
2022/10/09 06:38:45;;;;;;;0.63;0.63;;;6.50;99.90;;;;;;5098565;28;20652;-79
2022/10/09 06:41:13;;;;;;;0.50;0.50;;;8.00;1.00;;;;;;5106922;28;20198;-84
2022/10/09 06:43:40;;;;;;;0.57;0.57;;;9.20;1.00;;;;;;5113048;28;20184;-88
2022/10/09 06:46:11;;;;;;;0.40;0.40;;;10.00;99.90;;;;;;5109810;28;20185;-85
2022/10/09 06:48:38;;;;;;;0.53;0.53;;;10.50;19.30;;;;;;5117511;28;20205;-86
2022/10/09 06:51:15;;;;;;;0.47;0.47;;;10.60;1.00;;;;;;5108359;28;20201;-86
2022/10/09 06:53:43;;;;;;;0.30;0.30;;;11.10;1.00;;;;;;5110162;28;20653;-87
2022/10/09 06:56:09;;;;;;;0.43;0.43;;;11.30;99.90;;;;;;5107492;28;20209;-87
2022/10/09 06:58:36;;;;;;;0.40;0.40;;;11.90;99.90;;;;;;5112046;28;20184;-86
2022/10/09 07:01:07;;;;;;;0.30;0.30;;;11.70;99.90;;;;;;5112290;28;20189;-86
2022/10/09 07:03:34;;;;;;;0.30;0.30;;;12.30;99.90;;;;;;5111264;28;20189;-87
2022/10/09 07:06:10;;;;;;;0.30;0.30;;;12.70;99.90;;;;;;5109035;28;20181;-86
2022/10/09 07:08:37;;;;;;;0.40;0.40;;;12.70;94.40;;;;;;5112286;28;20193;-85
2022/10/09 07:11:26;;;;;;;0.30;0.30;;;13.30;99.30;;;;;;5112922;28;20197;-86
2022/10/09 07:14:00;;;;;;;0.40;0.40;;;13.40;1.00;;;;;;5113084;28;20646;-86
2022/10/09 07:16:30;;;;;;;0.30;0.30;;;13.20;5.80;;;;;;5099495;28;20214;-87
2022/10/09 07:18:56;;;;;;;0.30;0.30;;;13.80;96.60;;;;;;5094436;28;20197;-85
2022/10/09 07:21:23;;;;;;;0.30;0.30;;;14.20;1.00;;;;;;5103384;28;20198;-90
2022/10/09 07:23:49;;;;;;;0.50;0.50;;;14.50;1.00;;;;;;5104749;28;20242;-87
2022/10/09 07:26:18;;;;;;;0.37;0.37;;;14.90;1.00;;;;;;5108543;28;20181;-85
2022/10/09 07:28:44;;;;;;;0.33;0.33;;;14.90;1.00;;;;;;5103453;28;20275;-87
2022/10/09 07:31:11;;;;;;;0.40;0.40;;;15.00;1.00;;;;;;5108946;28;20228;-88
2022/10/09 07:33:38;;;;;;;0.50;0.50;;;15.30;1.00;;;;;;5121448;28;20204;-84
2022/10/09 07:36:05;;;;;;;0.47;0.47;;;16.00;1.00;;;;;;5115023;28;20218;-84
2022/10/09 07:38:31;;;;;;;0.60;0.60;;;16.30;1.00;;;;;;5118304;28;20177;-83
2022/10/09 07:41:02;;;;;;;0.70;0.70;;;16.30;1.00;;;;;;5119974;28;20192;-82
2022/10/09 07:43:28;;;;;;;0.40;0.40;;;16.70;1.00;;;;;;5117652;28;20162;-84
2022/10/09 07:45:58;;;;;;;0.40;0.40;;;17.00;1.00;;;;;;5106467;28;20205;-84
2022/10/09 07:48:23;;;;;;;0.50;0.50;;;17.30;1.00;;;;;;5103268;28;20181;-86
2022/10/09 07:50:49;;;;;;;0.50;0.50;;;17.50;1.00;;;;;;5098174;28;20190;-82
2022/10/09 07:53:14;;;;;;;0.50;0.50;;;17.50;1.00;;;;;;5101349;28;20182;-82
2022/10/09 07:55:47;;;;;;;0.43;0.43;;;17.60;1.00;;;;;;5102940;28;20297;-82
2022/10/09 07:58:16;;;;;;;0.60;0.60;;;17.40;1.00;;;;;;5100867;28;20182;-80
2022/10/09 08:00:42;;;;;;;0.50;0.50;;;17.20;1.00;;;;;;5097533;28;20270;-78
2022/10/09 08:03:08;;;;;;;0.50;0.50;;;17.00;1.00;;;;;;5098338;28;20194;-79
2022/10/09 08:05:34;;;;;;;0.40;0.40;;;17.30;1.00;;;;;;5098063;28;20181;-81
2022/10/09 08:07:59;;;;;;;0.30;0.30;;;17.30;1.00;;;;;;5098408;28;20181;-78
2022/10/09 08:10:28;;;;;;;0.40;0.40;;;16.70;1.00;;;;;;5098092;28;20685;-80
2022/10/09 08:12:54;;;;;;;0.40;0.40;;;16.90;1.00;;;;;;5080278;28;20191;-78
2022/10/09 08:15:19;;;;;;;0.40;0.40;;;16.60;1.00;;;;;;5095954;28;20582;-79
2022/10/09 08:17:45;;;;;;;0.30;0.30;;;16.60;1.00;;;;;;5097524;28;20654;-80
2022/10/09 08:20:10;;;;;;;0.30;0.30;;;16.80;1.00;;;;;;5096965;28;20196;-79
2022/10/09 08:22:36;;;;;;;0.30;0.30;;;17.10;1.00;;;;;;5095074;28;20182;-77
2022/10/09 08:25:02;;;;;;;0.30;0.30;;;17.30;1.00;;;;;;5094071;28;20193;-77
2022/10/09 08:27:27;;;;;;;0.40;0.40;;;17.60;1.00;;;;;;5096214;28;20181;-79
2022/10/09 08:29:53;;;;;;;0.43;0.43;;;17.60;1.00;;;;;;5093678;28;20686;-79
2022/10/09 08:32:18;;;;;;;0.40;0.40;;;18.40;1.00;;;;;;5091461;28;20178;-75
2022/10/09 08:34:44;;;;;;;0.40;0.40;;;18.00;1.00;;;;;;5093814;28;20178;-78
2022/10/09 08:37:10;;;;;;;0.50;0.50;;;18.30;1.00;;;;;;5091298;28;20218;-79
2022/10/09 08:39:35;;;;;;;0.50;0.50;;;17.80;1.00;;;;;;5089044;28;20186;-78
2022/10/09 08:42:02;;;;;;;0.50;0.50;;;18.10;1.00;;;;;;5095232;28;20642;-78
2022/10/09 08:44:39;;;;;;;0.40;0.40;;;18.60;1.00;;;;;;5095206;28;20846;-78
2022/10/09 08:47:35;;;;;;;0.40;0.40;;;18.60;1.00;;;;;;5094584;28;20650;-77
2022/10/09 08:50:18;;;;;;;0.30;0.30;;;18.90;1.00;;;;;;5089753;28;20704;-79
2022/10/09 08:53:01;;;;;;;0.30;0.30;;;18.20;1.00;;;;;;5088644;28;20178;-79
2022/10/09 08:55:30;;;;;;;0.40;0.40;;;18.50;1.00;;;;;;5085692;28;20850;-79
2022/10/09 08:58:03;;;;;;;0.40;0.40;;;18.30;1.00;;;;;;5095840;28;20602;-79
2022/10/09 09:00:42;;;;;;;0.30;0.30;;;18.30;1.00;;;;;;5095012;28;20339;-80
2022/10/09 09:03:25;;;;;;;0.40;0.40;;;18.20;1.00;;;;;;5089798;28;20189;-78
2022/10/09 09:06:25;;;;;;;0.30;0.30;;;18.30;1.00;;;;;;5086983;28;20186;-76
2022/10/09 09:09:17;;;;;;;0.40;0.40;;;18.60;1.00;;;;;;5091789;28;20747;-79
2022/10/09 09:12:07;;;;;;;0.33;0.33;;;19.00;1.00;;;;;;5074002;28;20216;-77
2022/10/09 09:14:54;;;;;;;0.30;0.30;;;18.60;1.00;;;;;;5085431;28;20533;-76
2022/10/09 09:17:22;;;;;;;0.47;0.47;;;19.90;1.00;;;;;;5092718;28;20685;-77
2022/10/09 09:19:54;;;;;;;0.47;0.47;;;20.20;1.00;;;;;;5092263;28;20181;-76
2022/10/09 09:22:20;;;;;;;0.50;0.50;;;19.90;1.00;;;;;;5090511;28;20830;-79
2022/10/09 09:24:56;;;;;;;0.33;0.33;;;20.10;1.00;;;;;;5090986;28;20208;-78
2022/10/09 09:27:32;;;;;;;0.30;0.30;;;19.80;1.00;;;;;;5092980;28;20181;-79
2022/10/09 09:30:24;;;;;;;0.40;0.40;;;20.00;1.00;;;;;;5086223;28;20198;-75
2022/10/09 09:33:07;;;;;;;0.40;0.40;;;19.60;1.00;;;;;;5078199;28;21114;-77
2022/10/09 09:35:47;;;;;;;0.50;0.50;;;20.30;1.00;;;;;;5089057;28;20579;-77
2022/10/09 09:38:14;;;;;;;0.40;0.40;;;20.80;1.00;;;;;;5086323;28;20181;-76
2022/10/09 09:40:39;;;;;;;0.40;0.40;;;21.10;1.00;;;;;;5088272;28;20205;-76
2022/10/09 09:43:15;;;;;;;0.40;0.40;;;20.90;1.00;;;;;;5091790;28;20625;-78
2022/10/09 09:45:42;;;;;;;0.40;0.40;;;20.90;1.00;;;;;;5091121;28;20645;-77
2022/10/09 09:48:19;;;;;;;0.33;0.33;;;20.60;1.00;;;;;;5084443;28;20182;-77
2022/10/09 09:50:45;;;;;;;0.40;0.40;;;20.70;1.00;;;;;;5092876;28;20201;-79
2022/10/09 09:53:25;;;;;;;0.40;0.40;;;20.20;1.00;;;;;;5093422;28;20642;-77
2022/10/09 09:55:52;;;;;;;0.47;0.47;;;20.50;1.00;;;;;;5092173;28;20216;-77
2022/10/09 09:58:20;;;;;;;0.37;0.37;;;21.30;1.00;;;;;;5093338;28;20592;-78
2022/10/09 10:00:57;;;;;;;0.20;0.20;;;20.80;1.00;;;;;;5091354;28;20729;-76
2022/10/09 10:03:23;;;;;;;0.20;0.20;;;20.80;1.00;;;;;;5086296;28;20201;-77
2022/10/09 10:05:50;;;;;;;0.30;0.30;;;20.00;1.00;;;;;;5092215;28;20205;-77
2022/10/09 10:08:25;;;;;;;0.37;0.37;;;20.40;1.00;;;;;;5094000;28;20214;-78
2022/10/09 10:10:53;;;;;;;0.33;0.33;;;20.90;1.00;;;;;;5092936;28;20197;-78
2022/10/09 10:13:44;;;;;;;0.30;0.30;;;21.30;1.00;;;;;;5095418;28;20174;-79
2022/10/09 10:16:26;;;;;;;0.40;0.40;;;21.50;1.00;;;;;;5094240;28;20297;-80
2022/10/09 10:18:55;;;;;;;0.40;0.40;;;20.80;1.00;;;;;;5092313;28;20176;-79
2022/10/09 10:21:21;;;;;;;0.40;0.40;;;20.50;1.00;;;;;;5092771;28;20690;-79
2022/10/09 10:23:59;;;;;;;0.40;0.40;;;19.20;1.00;;;;;;5095483;28;20177;-81
2022/10/09 10:26:50;;;;;;;0.40;0.40;;;20.00;1.00;;;;;;5094073;28;20201;-79
2022/10/09 10:29:22;;;;;;;0.37;0.37;;;20.50;1.00;;;;;;5094982;28;20178;-78
2022/10/09 10:32:09;;;;;;;0.40;0.40;;;20.80;1.00;;;;;;5094250;28;20205;-79
2022/10/09 10:34:45;;;;;;;0.30;0.30;;;20.50;1.00;;;;;;5092914;28;20173;-78
2022/10/09 10:37:21;;;;;;;0.47;0.47;;;20.50;1.00;;;;;;5093777;28;20209;-77
2022/10/09 10:40:04;;;;;;;0.40;0.40;;;21.00;1.00;;;;;;5092191;28;20177;-78
2022/10/09 10:42:41;;;;;;;0.30;0.30;;;21.20;1.00;;;;;;5093206;28;20252;-78
2022/10/09 10:45:15;;;;;;;0.37;0.37;;;20.70;1.00;;;;;;5092622;28;20570;-79
2022/10/09 10:47:47;;;;;;;0.40;0.40;;;21.20;1.00;;;;;;5093768;28;20181;-78
2022/10/09 10:50:14;;;;;;;0.37;0.37;;;21.00;1.00;;;;;;5092412;28;20251;-77
2022/10/09 10:53:01;;;;;;;0.40;0.40;;;20.50;1.00;;;;;;5094773;28;20177;-79
2022/10/09 10:55:41;;;;;;;0.30;0.30;;;21.70;1.00;;;;;;5092331;28;20209;-78
2022/10/09 10:58:49;;;;;;;0.30;0.30;;;21.40;1.00;;;;;;5092098;28;20243;-77
2022/10/09 11:01:15;;;;;;;0.40;0.40;;;21.40;1.00;;;;;;5091297;28;20194;-77
2022/10/09 11:04:10;;;;;;;0.40;0.40;;;19.40;1.00;;;;;;5091997;28;20192;-77
2022/10/09 11:06:50;;;;;;;0.30;0.30;;;19.70;1.00;;;;;;5092256;28;20166;-77
2022/10/09 11:09:47;;;;;;;0.30;0.30;;;19.70;1.00;;;;;;5093941;28;20173;-79
2022/10/09 11:12:32;;;;;;;0.40;0.40;;;20.20;1.00;;;;;;5093318;28;20638;-80
2022/10/09 11:15:20;;;;;;;0.30;0.30;;;20.80;1.00;;;;;;5097577;28;20203;-78
2022/10/09 11:18:33;;;;;;;0.30;0.30;;;21.00;1.00;;;;;;5096304;28;20332;-78
2022/10/09 11:21:33;;;;;;;0.30;0.30;;;20.00;1.00;;;;;;5069861;28;20198;-80
2022/10/09 11:24:36;;;;;;;0.30;0.30;;;22.10;1.00;;;;;;5093795;28;20197;-78
2022/10/09 11:27:19;;;;;;;0.43;0.43;;;20.90;1.00;;;;;;5098165;28;20181;-80
2022/10/09 11:30:03;;;;;;;0.30;0.30;;;21.10;1.00;;;;;;5096964;28;20641;-79
2022/10/09 11:32:34;;;;;;;0.30;0.30;;;20.80;1.00;;;;;;5098429;28;20266;-78
2022/10/09 11:35:12;;;;;;;0.30;0.30;;;20.00;1.00;;;;;;5096008;28;20173;-77
2022/10/09 11:37:42;;;;;;;0.40;0.40;;;20.10;1.00;;;;;;5095488;28;20177;-76
2022/10/09 11:40:18;;;;;;;0.40;0.40;;;20.70;1.00;;;;;;5094840;28;21013;-77
2022/10/09 11:42:59;;;;;;;0.40;0.40;;;20.80;1.00;;;;;;5095271;28;20653;-77
2022/10/09 11:45:43;;;;;;;0.30;0.30;;;20.90;1.00;;;;;;5095288;28;20273;-77
2022/10/09 11:48:26;;;;;;;0.40;0.40;;;20.90;1.00;;;;;;5095383;28;20776;-77
2022/10/09 11:51:10;;;;;;;0.27;0.27;;;21.00;1.00;;;;;;5094842;28;20198;-78
2022/10/09 11:53:38;;;;;;;0.30;0.30;;;22.00;1.00;;;;;;5095479;28;20226;-79
2022/10/09 11:56:07;;;;;;;0.33;0.33;;;20.30;1.00;;;;;;5097532;28;20790;-78
2022/10/09 11:58:34;;;;;;;0.37;0.37;;;18.70;1.00;;;;;;5097721;28;20178;-78
2022/10/09 12:01:11;;;;;;;0.30;0.30;;;19.20;1.00;;;;;;5096469;28;20250;-79
2022/10/09 12:03:38;;;;;;;0.40;0.40;;;19.40;1.00;;;;;;5099713;28;20955;-80
2022/10/09 12:06:10;;;;;;;0.30;0.30;;;19.00;1.00;;;;;;5099216;28;20635;-79
2022/10/09 12:08:42;;;;;;;0.37;0.37;;;19.00;1.00;;;;;;5098749;28;20515;-83
2022/10/09 12:11:14;;;;;;;0.23;0.23;;;19.80;1.00;;;;;;5098099;28;20239;-79
2022/10/09 12:13:44;;;;;;;0.40;0.40;;;19.80;1.00;;;;;;5097613;28;20178;-79
2022/10/09 12:16:30;;;;;;;0.40;0.40;;;20.40;1.00;;;;;;5097762;28;20217;-81
2022/10/09 12:18:58;;;;;;;0.33;0.33;;;21.10;1.00;;;;;;5099135;28;20181;-80
2022/10/09 12:21:27;;;;;;;0.40;0.40;;;21.10;1.00;;;;;;5097181;28;20200;-78
2022/10/09 12:23:53;;;;;;;0.30;0.30;;;21.90;1.00;;;;;;5099090;28;20189;-78
2022/10/09 12:26:22;;;;;;;0.30;0.30;;;22.00;1.00;;;;;;5098848;28;20177;-78
2022/10/09 12:28:52;;;;;;;0.40;0.40;;;22.70;1.00;;;;;;5098748;28;20174;-79
2022/10/09 12:31:25;;;;;;;0.40;0.40;;;22.00;1.00;;;;;;5097438;28;20208;-80
2022/10/09 12:33:56;;;;;;;0.30;0.30;;;21.10;1.00;;;;;;5099240;28;20182;-79
2022/10/09 12:36:25;;;;;;;0.40;0.40;;;20.20;1.00;;;;;;5099880;28;20588;-83
2022/10/09 12:38:51;;;;;;;0.30;0.30;;;20.30;1.00;;;;;;5096570;28;20170;-79
2022/10/09 12:41:28;;;;;;;0.40;0.40;;;20.60;1.00;;;;;;5104242;28;20212;-79
2022/10/09 12:43:56;;;;;;;0.30;0.30;;;21.10;1.00;;;;;;5112766;28;20169;-79
2022/10/09 12:46:27;;;;;;;0.43;0.43;;;20.90;1.00;;;;;;5106142;28;20252;-80
2022/10/09 12:48:53;;;;;;;0.30;0.30;;;20.60;1.00;;;;;;5100663;28;20170;-78
2022/10/09 12:51:24;;;;;;;0.40;0.40;;;21.30;1.00;;;;;;5094024;28;20221;-78
2022/10/09 12:53:51;;;;;;;0.40;0.40;;;21.10;1.00;;;;;;5096546;28;20212;-78
2022/10/09 12:56:28;;;;;;;0.30;0.30;;;21.00;1.00;;;;;;5100496;28;20204;-80
2022/10/09 12:58:54;;;;;;;0.40;0.40;;;19.70;1.00;;;;;;5105190;28;20224;-79
2022/10/09 13:01:21;;;;;;;0.30;0.30;;;20.50;1.00;;;;;;5100945;28;20281;-80
2022/10/09 13:03:56;;;;;;;0.30;0.30;;;19.90;1.00;;;;;;5111607;28;20201;-78
2022/10/09 13:06:28;;;;;;;0.40;0.40;;;19.40;1.00;;;;;;5102025;28;20162;-79
2022/10/09 13:09:01;;;;;;;0.50;0.50;;;19.30;1.00;;;;;;5097928;28;20186;-80
2022/10/09 13:11:36;;;;;;;0.50;0.50;;;20.20;1.00;;;;;;5096858;28;20193;-79
2022/10/09 13:14:03;;;;;;;0.37;0.37;;;20.90;1.00;;;;;;5091498;28;20162;-79
2022/10/09 13:16:41;;;;;;;0.40;0.40;;;20.20;1.00;;;;;;5097186;28;20209;-79